sensor_id;sensor_type;location;lat;lon;timestamp;pressure;altitude;pressure_sealevel;temperature;humidity
3654;BME280;70277;54.302;10.064;2023-08-30T00:01:00;100571.75;;;15.48;70.41
3654;BME280;70277;54.302;10.064;2023-08-30T00:03:27;100573.50;;;15.34;70.25
3654;BME280;70277;54.302;10.064;2023-08-30T00:05:53;100572.78;;;15.23;70.50
3654;BME280;70277;54.302;10.064;2023-08-30T00:08:22;100582.28;;;15.26;71.01
3654;BME280;70277;54.302;10.064;2023-08-30T00:10:49;100558.28;;;15.28;70.83
3654;BME280;70277;54.302;10.064;2023-08-30T00:13:15;100565.19;;;15.15;70.88
3654;BME280;70277;54.302;10.064;2023-08-30T00:15:42;100573.47;;;15.00;71.33
3654;BME280;70277;54.302;10.064;2023-08-30T00:18:08;100559.56;;;15.01;71.20
3654;BME280;70277;54.302;10.064;2023-08-30T00:20:36;100565.34;;;14.95;71.83
3654;BME280;70277;54.302;10.064;2023-08-30T00:23:02;100565.34;;;14.95;71.38
3654;BME280;70277;54.302;10.064;2023-08-30T00:25:29;100577.34;;;14.89;71.41
3654;BME280;70277;54.302;10.064;2023-08-30T00:27:56;100572.53;;;14.75;71.90
3654;BME280;70277;54.302;10.064;2023-08-30T00:30:22;100572.28;;;14.72;72.10
3654;BME280;70277;54.302;10.064;2023-08-30T00:32:49;100571.44;;;14.76;72.09
3654;BME280;70277;54.302;10.064;2023-08-30T00:35:15;100568.81;;;14.61;72.29
3654;BME280;70277;54.302;10.064;2023-08-30T00:37:42;100562.81;;;14.59;72.16
3654;BME280;70277;54.302;10.064;2023-08-30T00:40:08;100564.97;;;14.67;71.59
3654;BME280;70277;54.302;10.064;2023-08-30T00:42:35;100567.06;;;14.75;71.05
3654;BME280;70277;54.302;10.064;2023-08-30T00:45:01;100565.44;;;14.74;71.16
3654;BME280;70277;54.302;10.064;2023-08-30T00:47:28;100560.63;;;14.61;71.89
3654;BME280;70277;54.302;10.064;2023-08-30T00:49:55;100555.50;;;14.49;71.83
3654;BME280;70277;54.302;10.064;2023-08-30T00:52:21;100559.34;;;14.38;72.28
3654;BME280;70277;54.302;10.064;2023-08-30T00:54:48;100556.31;;;14.40;71.90
3654;BME280;70277;54.302;10.064;2023-08-30T00:57:14;100556.63;;;14.33;72.04
3654;BME280;70277;54.302;10.064;2023-08-30T00:59:41;100554.19;;;14.31;72.49
3654;BME280;70277;54.302;10.064;2023-08-30T01:02:08;100558.28;;;14.29;73.50
3654;BME280;70277;54.302;10.064;2023-08-30T01:04:35;100557.19;;;14.30;73.54
3654;BME280;70277;54.302;10.064;2023-08-30T01:07:02;100556.38;;;14.29;72.25
3654;BME280;70277;54.302;10.064;2023-08-30T01:09:28;100556.09;;;14.31;72.75
3654;BME280;70277;54.302;10.064;2023-08-30T01:12:08;100548.00;;;14.16;72.76
3654;BME280;70277;54.302;10.064;2023-08-30T01:14:40;100548.28;;;14.14;72.84
3654;BME280;70277;54.302;10.064;2023-08-30T01:17:11;100552.63;;;14.15;72.58
3654;BME280;70277;54.302;10.064;2023-08-30T01:19:55;100548.28;;;14.14;72.76
3654;BME280;70277;54.302;10.064;2023-08-30T01:22:45;100549.59;;;14.17;72.70
3654;BME280;70277;54.302;10.064;2023-08-30T01:25:24;100545.25;;;14.16;72.44
3654;BME280;70277;54.302;10.064;2023-08-30T01:27:54;100536.78;;;14.22;72.10
3654;BME280;70277;54.302;10.064;2023-08-30T01:30:22;100533.84;;;14.14;72.12
3654;BME280;70277;54.302;10.064;2023-08-30T01:32:51;100538.75;;;14.06;72.24
3654;BME280;70277;54.302;10.064;2023-08-30T01:35:18;100539.03;;;14.10;72.46
3654;BME280;70277;54.302;10.064;2023-08-30T01:37:46;100531.91;;;14.19;72.04
3654;BME280;70277;54.302;10.064;2023-08-30T01:40:15;100529.50;;;14.13;71.63
3654;BME280;70277;54.302;10.064;2023-08-30T01:42:44;100534.13;;;14.07;72.01
3654;BME280;70277;54.302;10.064;2023-08-30T01:45:12;100529.78;;;14.11;71.70
3654;BME280;70277;54.302;10.064;2023-08-30T01:47:41;100524.84;;;14.13;71.51
3654;BME280;70277;54.302;10.064;2023-08-30T01:50:10;100528.66;;;14.17;71.95
3654;BME280;70277;54.302;10.064;2023-08-30T01:52:38;100533.88;;;14.03;72.29
3654;BME280;70277;54.302;10.064;2023-08-30T01:55:07;100534.19;;;13.97;72.03
3654;BME280;70277;54.302;10.064;2023-08-30T01:57:34;100533.94;;;13.93;72.22
3654;BME280;70277;54.302;10.064;2023-08-30T02:00:01;100535.81;;;13.98;71.99
3654;BME280;70277;54.302;10.064;2023-08-30T02:02:41;100530.91;;;13.95;72.25
3654;BME280;70277;54.302;10.064;2023-08-30T02:05:07;100521.13;;;13.94;72.61
3654;BME280;70277;54.302;10.064;2023-08-30T02:10:22;100519.81;;;13.76;72.58
3654;BME280;70277;54.302;10.064;2023-08-30T02:12:50;100521.69;;;13.85;71.90
3654;BME280;70277;54.302;10.064;2023-08-30T02:15:18;100512.19;;;13.83;72.19
3654;BME280;70277;54.302;10.064;2023-08-30T02:17:48;100502.09;;;13.94;71.79
3654;BME280;70277;54.302;10.064;2023-08-30T02:20:16;100514.59;;;13.95;72.15
3654;BME280;70277;54.302;10.064;2023-08-30T02:22:42;100508.09;;;13.91;72.22
3654;BME280;70277;54.302;10.064;2023-08-30T02:25:09;100511.06;;;13.99;71.50
3654;BME280;70277;54.302;10.064;2023-08-30T02:27:36;100518.66;;;13.92;71.60
3654;BME280;70277;54.302;10.064;2023-08-30T02:30:03;100503.97;;;13.98;71.29
3654;BME280;70277;54.302;10.064;2023-08-30T02:32:30;100505.31;;;14.06;71.17
3654;BME280;70277;54.302;10.064;2023-08-30T02:34:56;100496.59;;;14.04;71.64
3654;BME280;70277;54.302;10.064;2023-08-30T02:37:23;100496.03;;;14.12;71.35
3654;BME280;70277;54.302;10.064;2023-08-30T02:39:50;100495.50;;;14.05;71.61
3654;BME280;70277;54.302;10.064;2023-08-30T02:42:17;100487.31;;;14.05;71.86
3654;BME280;70277;54.302;10.064;2023-08-30T02:44:43;100490.88;;;14.05;71.83
3654;BME280;70277;54.302;10.064;2023-08-30T02:47:10;100484.03;;;14.13;71.36
3654;BME280;70277;54.302;10.064;2023-08-30T02:49:36;100499.72;;;14.31;71.32
3654;BME280;70277;54.302;10.064;2023-08-30T02:52:03;100499.16;;;14.40;71.20
3654;BME280;70277;54.302;10.064;2023-08-30T02:54:29;100492.19;;;14.18;71.83
3654;BME280;70277;54.302;10.064;2023-08-30T02:56:56;100492.75;;;14.15;72.15
3654;BME280;70277;54.302;10.064;2023-08-30T02:59:22;100487.88;;;14.12;72.49
3654;BME280;70277;54.302;10.064;2023-08-30T03:01:49;100489.47;;;14.13;73.30
3654;BME280;70277;54.302;10.064;2023-08-30T03:04:15;100496.16;;;14.41;72.37
3654;BME280;70277;54.302;10.064;2023-08-30T03:06:42;100488.84;;;14.31;72.50
3654;BME280;70277;54.302;10.064;2023-08-30T03:09:08;100487.22;;;14.36;72.80
3654;BME280;70277;54.302;10.064;2023-08-30T03:11:35;100494.22;;;14.47;72.40
3654;BME280;70277;54.302;10.064;2023-08-30T03:14:01;100490.41;;;14.48;72.72
3654;BME280;70277;54.302;10.064;2023-08-30T03:16:27;100497.22;;;14.55;72.57
3654;BME280;70277;54.302;10.064;2023-08-30T03:18:55;100497.69;;;14.63;72.53
3654;BME280;70277;54.302;10.064;2023-08-30T03:21:21;100494.72;;;14.64;72.76
3654;BME280;70277;54.302;10.064;2023-08-30T03:23:48;100482.34;;;14.77;72.13
3654;BME280;70277;54.302;10.064;2023-08-30T03:26:15;100488.59;;;14.83;71.85
3654;BME280;70277;54.302;10.064;2023-08-30T03:28:43;100490.75;;;14.86;71.50
3654;BME280;70277;54.302;10.064;2023-08-30T03:31:17;100491.31;;;14.83;71.72
3654;BME280;70277;54.302;10.064;2023-08-30T03:33:44;100480.41;;;14.83;72.18
3654;BME280;70277;54.302;10.064;2023-08-30T03:36:13;100484.16;;;14.92;72.10
3654;BME280;70277;54.302;10.064;2023-08-30T03:38:40;100483.03;;;14.93;71.75
3654;BME280;70277;54.302;10.064;2023-08-30T03:41:09;100478.41;;;14.93;71.83
3654;BME280;70277;54.302;10.064;2023-08-30T03:43:35;100490.06;;;15.04;71.85
3654;BME280;70277;54.302;10.064;2023-08-30T03:46:02;100480.72;;;15.10;71.60
3654;BME280;70277;54.302;10.064;2023-08-30T03:48:31;100475.88;;;15.02;71.98
3654;BME280;70277;54.302;10.064;2023-08-30T03:50:58;100476.91;;;15.11;71.75
3654;BME280;70277;54.302;10.064;2023-08-30T03:53:25;100474.06;;;15.27;71.77
3654;BME280;70277;54.302;10.064;2023-08-30T03:55:51;100463.66;;;15.29;71.52
3654;BME280;70277;54.302;10.064;2023-08-30T03:58:18;100462.84;;;15.28;72.03
3654;BME280;70277;54.302;10.064;2023-08-30T04:00:45;100457.59;;;15.37;71.76
3654;BME280;70277;54.302;10.064;2023-08-30T04:03:13;100461.13;;;15.37;72.03
3654;BME280;70277;54.302;10.064;2023-08-30T04:05:41;100447.97;;;15.44;72.05
3654;BME280;70277;54.302;10.064;2023-08-30T04:08:08;100456.34;;;15.53;71.78
3654;BME280;70277;54.302;10.064;2023-08-30T04:10:40;100455.28;;;15.49;71.80
3654;BME280;70277;54.302;10.064;2023-08-30T04:13:07;100444.13;;;15.45;72.24
3654;BME280;70277;54.302;10.064;2023-08-30T04:15:36;100439.19;;;15.23;73.59
3654;BME280;70277;54.302;10.064;2023-08-30T04:18:03;100434.84;;;15.46;72.87
3654;BME280;70277;54.302;10.064;2023-08-30T04:20:31;100436.72;;;15.51;72.68
3654;BME280;70277;54.302;10.064;2023-08-30T04:22:59;100431.66;;;15.68;72.31
3654;BME280;70277;54.302;10.064;2023-08-30T04:25:28;100437.28;;;15.24;74.29
3654;BME280;70277;54.302;10.064;2023-08-30T04:27:55;100428.59;;;15.46;73.10
3654;BME280;70277;54.302;10.064;2023-08-30T04:30:22;100426.25;;;15.58;72.94
3654;BME280;70277;54.302;10.064;2023-08-30T04:32:48;100429.16;;;15.43;73.37
3654;BME280;70277;54.302;10.064;2023-08-30T04:35:15;100421.66;;;15.59;72.89
3654;BME280;70277;54.302;10.064;2023-08-30T04:37:41;100425.84;;;15.46;73.44
3654;BME280;70277;54.302;10.064;2023-08-30T04:40:09;100430.44;;;15.27;74.87
3654;BME280;70277;54.302;10.064;2023-08-30T04:42:36;100427.44;;;15.52;74.11
3654;BME280;70277;54.302;10.064;2023-08-30T04:45:04;100422.56;;;15.49;73.86
3654;BME280;70277;54.302;10.064;2023-08-30T04:47:31;100423.44;;;15.44;74.42
3654;BME280;70277;54.302;10.064;2023-08-30T04:49:58;100425.19;;;15.59;73.87
3654;BME280;70277;54.302;10.064;2023-08-30T04:52:24;100425.25;;;15.78;73.20
3654;BME280;70277;54.302;10.064;2023-08-30T04:54:51;100423.00;;;15.85;72.61
3654;BME280;70277;54.302;10.064;2023-08-30T04:57:17;100423.41;;;15.74;73.18
3654;BME280;70277;54.302;10.064;2023-08-30T04:59:44;100412.81;;;15.91;72.88
3654;BME280;70277;54.302;10.064;2023-08-30T05:02:11;100413.38;;;15.88;72.84
3654;BME280;70277;54.302;10.064;2023-08-30T05:04:38;100413.53;;;15.78;73.90
3654;BME280;70277;54.302;10.064;2023-08-30T05:07:05;100421.28;;;15.65;74.39
3654;BME280;70277;54.302;10.064;2023-08-30T05:09:31;100411.44;;;15.69;74.45
3654;BME280;70277;54.302;10.064;2023-08-30T05:11:58;100419.31;;;15.95;74.26
3654;BME280;70277;54.302;10.064;2023-08-30T05:14:25;100409.09;;;15.58;75.30
3654;BME280;70277;54.302;10.064;2023-08-30T05:16:52;100410.47;;;15.55;75.80
3654;BME280;70277;54.302;10.064;2023-08-30T05:19:22;100412.63;;;15.58;75.76
3654;BME280;70277;54.302;10.064;2023-08-30T05:21:49;100420.41;;;15.94;74.79
3654;BME280;70277;54.302;10.064;2023-08-30T05:24:21;100426.78;;;16.08;74.55
3654;BME280;70277;54.302;10.064;2023-08-30T05:26:47;100426.00;;;15.84;74.80
3654;BME280;70277;54.302;10.064;2023-08-30T05:29:15;100438.13;;;15.73;75.72
3654;BME280;70277;54.302;10.064;2023-08-30T05:31:41;100428.41;;;16.28;74.51
3654;BME280;70277;54.302;10.064;2023-08-30T05:34:08;100427.03;;;16.12;74.42
3654;BME280;70277;54.302;10.064;2023-08-30T05:36:35;100431.50;;;16.41;74.13
3654;BME280;70277;54.302;10.064;2023-08-30T05:39:01;100422.00;;;16.38;73.85
3654;BME280;70277;54.302;10.064;2023-08-30T05:41:29;100442.00;;;16.52;73.97
3654;BME280;70277;54.302;10.064;2023-08-30T05:43:57;100438.44;;;16.71;73.22
3654;BME280;70277;54.302;10.064;2023-08-30T05:46:24;100440.38;;;16.89;72.83
3654;BME280;70277;54.302;10.064;2023-08-30T05:48:51;100438.66;;;16.93;72.39
3654;BME280;70277;54.302;10.064;2023-08-30T05:51:17;100441.69;;;17.24;71.58
3654;BME280;70277;54.302;10.064;2023-08-30T05:53:46;100436.88;;;17.02;71.51
3654;BME280;70277;54.302;10.064;2023-08-30T05:56:12;100425.47;;;16.81;71.94
3654;BME280;70277;54.302;10.064;2023-08-30T05:58:39;100421.09;;;16.61;73.22
3654;BME280;70277;54.302;10.064;2023-08-30T06:01:06;100421.53;;;16.69;72.73
3654;BME280;70277;54.302;10.064;2023-08-30T06:03:34;100420.75;;;16.49;73.44
3654;BME280;70277;54.302;10.064;2023-08-30T06:06:01;100414.81;;;16.61;73.50
3654;BME280;70277;54.302;10.064;2023-08-30T06:08:28;100419.47;;;16.79;73.25
3654;BME280;70277;54.302;10.064;2023-08-30T06:10:54;100407.72;;;17.12;72.33
3654;BME280;70277;54.302;10.064;2023-08-30T06:13:21;100420.66;;;16.92;72.54
3654;BME280;70277;54.302;10.064;2023-08-30T06:15:51;100417.38;;;16.90;73.14
3654;BME280;70277;54.302;10.064;2023-08-30T06:18:18;100416.81;;;16.55;73.78
3654;BME280;70277;54.302;10.064;2023-08-30T06:20:45;100418.00;;;16.49;74.06
3654;BME280;70277;54.302;10.064;2023-08-30T06:23:13;100412.16;;;16.56;74.17
3654;BME280;70277;54.302;10.064;2023-08-30T06:25:39;100408.19;;;16.86;74.06
3654;BME280;70277;54.302;10.064;2023-08-30T06:28:06;100414.44;;;16.87;73.97
3654;BME280;70277;54.302;10.064;2023-08-30T06:30:33;100407.06;;;16.87;73.46
3654;BME280;70277;54.302;10.064;2023-08-30T06:32:59;100399.53;;;17.25;73.61
3654;BME280;70277;54.302;10.064;2023-08-30T06:35:26;100402.81;;;17.69;72.31
3654;BME280;70277;54.302;10.064;2023-08-30T06:37:53;100390.16;;;17.87;71.56
3654;BME280;70277;54.302;10.064;2023-08-30T06:40:19;100392.25;;;17.76;70.61
3654;BME280;70277;54.302;10.064;2023-08-30T06:42:46;100387.47;;;18.09;70.86
3654;BME280;70277;54.302;10.064;2023-08-30T06:45:12;100386.25;;;17.74;71.82
3654;BME280;70277;54.302;10.064;2023-08-30T06:47:39;100385.56;;;17.96;71.30
3654;BME280;70277;54.302;10.064;2023-08-30T06:50:06;100392.84;;;18.01;70.22
3654;BME280;70277;54.302;10.064;2023-08-30T06:52:35;100394.19;;;18.62;69.98
3654;BME280;70277;54.302;10.064;2023-08-30T06:55:03;100386.97;;;18.07;70.09
3654;BME280;70277;54.302;10.064;2023-08-30T06:57:29;100387.25;;;18.19;69.58
3654;BME280;70277;54.302;10.064;2023-08-30T06:59:56;100381.09;;;18.59;69.63
3654;BME280;70277;54.302;10.064;2023-08-30T07:02:22;100385.09;;;18.98;68.52
3654;BME280;70277;54.302;10.064;2023-08-30T07:04:49;100383.72;;;19.09;67.00
3654;BME280;70277;54.302;10.064;2023-08-30T07:07:15;100384.47;;;19.01;67.29
3654;BME280;70277;54.302;10.064;2023-08-30T07:09:41;100382.34;;;18.98;67.23
3654;BME280;70277;54.302;10.064;2023-08-30T07:12:08;100382.16;;;19.25;66.35
3654;BME280;70277;54.302;10.064;2023-08-30T07:14:34;100377.94;;;19.59;66.27
3654;BME280;70277;54.302;10.064;2023-08-30T07:17:01;100386.91;;;19.82;65.50
3654;BME280;70277;54.302;10.064;2023-08-30T07:19:27;100384.84;;;20.05;63.92
3654;BME280;70277;54.302;10.064;2023-08-30T07:21:54;100391.91;;;19.80;63.84
3654;BME280;70277;54.302;10.064;2023-08-30T07:24:20;100390.94;;;19.76;65.58
3654;BME280;70277;54.302;10.064;2023-08-30T07:26:48;100393.75;;;20.45;63.69
3654;BME280;70277;54.302;10.064;2023-08-30T07:29:15;100393.63;;;20.59;63.43
3654;BME280;70277;54.302;10.064;2023-08-30T07:31:41;100394.09;;;20.61;61.80
3654;BME280;70277;54.302;10.064;2023-08-30T07:34:08;100392.97;;;20.62;61.09
3654;BME280;70277;54.302;10.064;2023-08-30T07:36:35;100384.72;;;20.62;61.45
3654;BME280;70277;54.302;10.064;2023-08-30T07:39:13;100386.50;;;20.23;61.39
3654;BME280;70277;54.302;10.064;2023-08-30T07:41:39;100384.72;;;20.45;61.98
3654;BME280;70277;54.302;10.064;2023-08-30T07:44:06;100383.56;;;20.29;62.57
3654;BME280;70277;54.302;10.064;2023-08-30T07:46:32;100383.06;;;20.87;61.61
3654;BME280;70277;54.302;10.064;2023-08-30T07:48:59;100378.56;;;21.30;59.73
3654;BME280;70277;54.302;10.064;2023-08-30T07:51:25;100384.97;;;21.51;58.87
3654;BME280;70277;54.302;10.064;2023-08-30T07:53:52;100385.41;;;21.24;59.46
3654;BME280;70277;54.302;10.064;2023-08-30T07:56:18;100391.91;;;21.10;60.33
3654;BME280;70277;54.302;10.064;2023-08-30T07:58:45;100387.72;;;21.04;59.76
3654;BME280;70277;54.302;10.064;2023-08-30T08:01:11;100390.19;;;21.44;58.05
3654;BME280;70277;54.302;10.064;2023-08-30T08:03:38;100393.75;;;20.45;60.28
3654;BME280;70277;54.302;10.064;2023-08-30T08:06:11;100383.41;;;20.86;59.54
3654;BME280;70277;54.302;10.064;2023-08-30T08:08:37;100388.25;;;20.89;59.09
3654;BME280;70277;54.302;10.064;2023-08-30T08:11:04;100386.28;;;22.04;58.48
3654;BME280;70277;54.302;10.064;2023-08-30T08:13:30;100388.03;;;22.30;57.52
3654;BME280;70277;54.302;10.064;2023-08-30T08:15:57;100390.47;;;22.53;55.33
3654;BME280;70277;54.302;10.064;2023-08-30T08:18:24;100394.63;;;22.59;54.33
3654;BME280;70277;54.302;10.064;2023-08-30T08:20:51;100405.75;;;22.83;53.96
3654;BME280;70277;54.302;10.064;2023-08-30T08:23:17;100409.38;;;22.63;55.12
3654;BME280;70277;54.302;10.064;2023-08-30T08:25:44;100394.09;;;21.73;56.49
3654;BME280;70277;54.302;10.064;2023-08-30T08:28:10;100401.38;;;21.77;56.61
3654;BME280;70277;54.302;10.064;2023-08-30T08:30:37;100398.53;;;22.16;56.64
3654;BME280;70277;54.302;10.064;2023-08-30T08:33:04;100395.19;;;22.31;55.56
3654;BME280;70277;54.302;10.064;2023-08-30T08:35:30;100395.00;;;22.36;55.87
3654;BME280;70277;54.302;10.064;2023-08-30T08:37:57;100398.97;;;21.97;57.48
3654;BME280;70277;54.302;10.064;2023-08-30T08:40:23;100402.34;;;21.73;57.40
3654;BME280;70277;54.302;10.064;2023-08-30T08:43:10;100399.72;;;21.76;57.68
3654;BME280;70277;54.302;10.064;2023-08-30T08:45:37;100398.50;;;22.45;56.72
3654;BME280;70277;54.302;10.064;2023-08-30T08:48:04;100399.84;;;22.39;55.84
3654;BME280;70277;54.302;10.064;2023-08-30T08:50:35;100406.03;;;22.36;55.60
3654;BME280;70277;54.302;10.064;2023-08-30T08:53:02;100410.66;;;22.44;56.65
3654;BME280;70277;54.302;10.064;2023-08-30T08:55:30;100403.56;;;22.56;55.73
3654;BME280;70277;54.302;10.064;2023-08-30T08:57:58;100407.66;;;22.70;55.53
3654;BME280;70277;54.302;10.064;2023-08-30T09:00:26;100409.94;;;22.89;54.31
3654;BME280;70277;54.302;10.064;2023-08-30T09:02:54;100402.03;;;23.00;54.76
3654;BME280;70277;54.302;10.064;2023-08-30T09:05:21;100398.75;;;22.86;55.02
3654;BME280;70277;54.302;10.064;2023-08-30T09:07:48;100398.78;;;23.68;53.80
3654;BME280;70277;54.302;10.064;2023-08-30T09:10:17;100403.06;;;23.78;52.08
3654;BME280;70277;54.302;10.064;2023-08-30T09:12:44;100386.28;;;23.01;54.08
3654;BME280;70277;54.302;10.064;2023-08-30T09:15:10;100396.84;;;23.93;52.38
3654;BME280;70277;54.302;10.064;2023-08-30T09:17:37;100395.75;;;23.24;52.01
3654;BME280;70277;54.302;10.064;2023-08-30T09:20:11;100399.06;;;22.30;55.54
3654;BME280;70277;54.302;10.064;2023-08-30T09:22:42;100393.00;;;23.36;53.92
3654;BME280;70277;54.302;10.064;2023-08-30T09:25:11;100397.88;;;23.52;54.22
3654;BME280;70277;54.302;10.064;2023-08-30T09:27:38;100401.53;;;23.44;52.94
3654;BME280;70277;54.302;10.064;2023-08-30T09:30:06;100409.03;;;23.80;52.78
3654;BME280;70277;54.302;10.064;2023-08-30T09:32:41;100406.84;;;23.49;53.19
3654;BME280;70277;54.302;10.064;2023-08-30T09:35:09;100406.28;;;22.98;52.90
3654;BME280;70277;54.302;10.064;2023-08-30T09:37:36;100402.81;;;22.67;54.74
3654;BME280;70277;54.302;10.064;2023-08-30T09:40:04;100395.56;;;21.70;57.00
3654;BME280;70277;54.302;10.064;2023-08-30T09:42:31;100397.00;;;21.38;56.58
3654;BME280;70277;54.302;10.064;2023-08-30T09:44:58;100400.72;;;22.01;56.57
3654;BME280;70277;54.302;10.064;2023-08-30T09:47:25;100400.06;;;22.04;56.23
3654;BME280;70277;54.302;10.064;2023-08-30T09:49:55;100410.94;;;21.42;57.23
3654;BME280;70277;54.302;10.064;2023-08-30T09:52:24;100408.00;;;20.74;57.55
3654;BME280;70277;54.302;10.064;2023-08-30T09:54:51;100405.09;;;20.61;58.09
3654;BME280;70277;54.302;10.064;2023-08-30T09:57:18;100394.53;;;20.98;58.03
3654;BME280;70277;54.302;10.064;2023-08-30T09:59:45;100398.28;;;21.32;57.29
3654;BME280;70277;54.302;10.064;2023-08-30T10:02:13;100395.84;;;21.77;56.53
3654;BME280;70277;54.302;10.064;2023-08-30T10:04:40;100390.44;;;21.90;54.95
3654;BME280;70277;54.302;10.064;2023-08-30T10:07:08;100387.50;;;22.16;55.98
3654;BME280;70277;54.302;10.064;2023-08-30T10:09:38;100380.78;;;22.46;53.34
3654;BME280;70277;54.302;10.064;2023-08-30T10:12:19;100381.66;;;21.67;54.84
3654;BME280;70277;54.302;10.064;2023-08-30T10:14:46;100386.31;;;21.75;55.43
3654;BME280;70277;54.302;10.064;2023-08-30T10:17:14;100386.00;;;21.38;55.72
3654;BME280;70277;54.302;10.064;2023-08-30T10:19:45;100387.28;;;21.32;56.37
3654;BME280;70277;54.302;10.064;2023-08-30T10:22:13;100380.34;;;21.94;55.57
3654;BME280;70277;54.302;10.064;2023-08-30T10:25:17;100387.22;;;22.51;54.40
3654;BME280;70277;54.302;10.064;2023-08-30T10:27:47;100386.88;;;22.19;54.23
3654;BME280;70277;54.302;10.064;2023-08-30T10:30:16;100388.66;;;21.85;56.17
3654;BME280;70277;54.302;10.064;2023-08-30T10:32:44;100381.59;;;21.75;54.77
3654;BME280;70277;54.302;10.064;2023-08-30T10:35:13;100388.84;;;21.12;54.94
3654;BME280;70277;54.302;10.064;2023-08-30T10:37:40;100388.31;;;21.19;55.94
3654;BME280;70277;54.302;10.064;2023-08-30T10:40:07;100394.47;;;21.63;54.44
3654;BME280;70277;54.302;10.064;2023-08-30T10:42:34;100392.91;;;22.03;55.46
3654;BME280;70277;54.302;10.064;2023-08-30T10:45:05;100388.47;;;21.90;52.95
3654;BME280;70277;54.302;10.064;2023-08-30T10:47:36;100400.38;;;21.35;51.55
3654;BME280;70277;54.302;10.064;2023-08-30T10:50:12;100387.41;;;20.97;52.17
3654;BME280;70277;54.302;10.064;2023-08-30T10:52:39;100379.69;;;21.29;52.20
3654;BME280;70277;54.302;10.064;2023-08-30T10:55:10;100383.06;;;20.79;52.54
3654;BME280;70277;54.302;10.064;2023-08-30T10:57:41;100380.53;;;21.21;52.62
3654;BME280;70277;54.302;10.064;2023-08-30T11:00:09;100378.00;;;21.54;51.93
3654;BME280;70277;54.302;10.064;2023-08-30T11:02:37;100366.84;;;21.50;51.60
3654;BME280;70277;54.302;10.064;2023-08-30T11:05:09;100370.75;;;22.00;51.58
3654;BME280;70277;54.302;10.064;2023-08-30T11:07:35;100372.22;;;22.93;51.28
3654;BME280;70277;54.302;10.064;2023-08-30T11:10:06;100363.56;;;23.65;49.05
3654;BME280;70277;54.302;10.064;2023-08-30T11:12:35;100368.66;;;23.75;47.84
3654;BME280;70277;54.302;10.064;2023-08-30T11:15:02;100367.13;;;22.83;48.52
3654;BME280;70277;54.302;10.064;2023-08-30T11:17:29;100371.03;;;22.82;48.65
3654;BME280;70277;54.302;10.064;2023-08-30T11:20:15;100356.75;;;23.62;49.33
3654;BME280;70277;54.302;10.064;2023-08-30T11:22:48;100359.88;;;23.24;49.18
3654;BME280;70277;54.302;10.064;2023-08-30T11:25:15;100360.22;;;23.10;47.98
3654;BME280;70277;54.302;10.064;2023-08-30T11:27:43;100363.88;;;23.14;47.48
3654;BME280;70277;54.302;10.064;2023-08-30T11:30:10;100355.91;;;21.92;49.03
3654;BME280;70277;54.302;10.064;2023-08-30T11:32:41;100348.19;;;22.07;49.68
3654;BME280;70277;54.302;10.064;2023-08-30T11:35:11;100357.44;;;22.77;49.23
3654;BME280;70277;54.302;10.064;2023-08-30T11:37:40;100362.28;;;23.62;47.45
3654;BME280;70277;54.302;10.064;2023-08-30T11:40:07;100360.09;;;22.74;48.88
3654;BME280;70277;54.302;10.064;2023-08-30T11:42:33;100352.63;;;22.20;49.79
3654;BME280;70277;54.302;10.064;2023-08-30T11:45:01;100342.81;;;21.60;51.82
3654;BME280;70277;54.302;10.064;2023-08-30T11:47:28;100349.88;;;22.20;52.09
3654;BME280;70277;54.302;10.064;2023-08-30T11:49:56;100342.09;;;22.22;51.67
3654;BME280;70277;54.302;10.064;2023-08-30T11:52:25;100356.78;;;23.26;50.56
3654;BME280;70277;54.302;10.064;2023-08-30T11:54:52;100353.56;;;22.78;48.05
3654;BME280;70277;54.302;10.064;2023-08-30T11:57:19;100344.50;;;22.23;51.01
3654;BME280;70277;54.302;10.064;2023-08-30T11:59:46;100340.09;;;22.77;50.97
3654;BME280;70277;54.302;10.064;2023-08-30T12:02:14;100345.03;;;22.83;50.96
3654;BME280;70277;54.302;10.064;2023-08-30T12:04:43;100344.44;;;22.99;48.74
3654;BME280;70277;54.302;10.064;2023-08-30T12:07:25;100343.75;;;23.51;48.48
3654;BME280;70277;54.302;10.064;2023-08-30T12:10:04;100338.00;;;22.74;48.74
3654;BME280;70277;54.302;10.064;2023-08-30T12:12:30;100336.22;;;22.57;49.38
3654;BME280;70277;54.302;10.064;2023-08-30T12:14:57;100329.41;;;23.57;46.53
3654;BME280;70277;54.302;10.064;2023-08-30T12:17:24;100322.50;;;23.76;45.86
3654;BME280;70277;54.302;10.064;2023-08-30T12:19:57;100333.06;;;23.25;47.23
3654;BME280;70277;54.302;10.064;2023-08-30T12:22:36;100333.16;;;22.25;48.90
3654;BME280;70277;54.302;10.064;2023-08-30T12:25:03;100327.91;;;23.11;47.71
3654;BME280;70277;54.302;10.064;2023-08-30T12:27:30;100324.44;;;23.75;46.40
3654;BME280;70277;54.302;10.064;2023-08-30T12:29:56;100321.19;;;24.54;45.87
3654;BME280;70277;54.302;10.064;2023-08-30T12:32:23;100320.31;;;24.50;44.75
3654;BME280;70277;54.302;10.064;2023-08-30T12:34:49;100316.63;;;24.46;46.67
3654;BME280;70277;54.302;10.064;2023-08-30T12:37:15;100328.78;;;24.57;46.36
3654;BME280;70277;54.302;10.064;2023-08-30T12:39:42;100318.88;;;23.88;46.85
3654;BME280;70277;54.302;10.064;2023-08-30T12:42:09;100323.66;;;23.26;47.91
3654;BME280;70277;54.302;10.064;2023-08-30T12:44:35;100324.19;;;23.56;47.22
3654;BME280;70277;54.302;10.064;2023-08-30T12:47:02;100318.69;;;23.44;47.45
3654;BME280;70277;54.302;10.064;2023-08-30T12:49:29;100314.41;;;22.97;47.81
3654;BME280;70277;54.302;10.064;2023-08-30T12:51:55;100309.22;;;22.17;49.64
3654;BME280;70277;54.302;10.064;2023-08-30T12:54:22;100316.81;;;22.20;49.61
3654;BME280;70277;54.302;10.064;2023-08-30T12:56:49;100305.72;;;22.86;47.66